Time;durP1;ratioP1;P1;durP2;ratioP2;P2;SDS_P1;SDS_P2;PMS_P1;PMS_P2;Temp;Humidity;BMP_temperature;BMP_pressure;BME280_temperature;BME280_humidity;BME280_pressure;Samples;Min_cycle;Max_cycle;Signal;HPM_P1;HPM_P2
2023/03/11 00:00:55;;;;;;;5.50;2.00;;;2.20;99.90;;;;;;4997128;28;20844;-79
2023/03/11 00:03:23;;;;;;;2.80;1.83;;;2.30;99.90;;;;;;4999211;28;20458;-79
2023/03/11 00:05:51;;;;;;;2.60;2.03;;;2.30;99.90;;;;;;5001293;28;20211;-80
2023/03/11 00:08:20;;;;;;;3.50;1.70;;;2.30;99.90;;;;;;5001559;28;20475;-80
2023/03/11 00:10:48;;;;;;;2.60;1.90;;;2.30;99.90;;;;;;5001817;28;20805;-83
2023/03/11 00:13:16;;;;;;;3.23;1.63;;;2.40;99.90;;;;;;5002925;28;20525;-80
2023/03/11 00:15:44;;;;;;;3.30;2.27;;;2.40;99.90;;;;;;5001048;28;20488;-80
2023/03/11 00:18:11;;;;;;;5.53;2.63;;;2.40;99.90;;;;;;5001019;28;20528;-80
2023/03/11 00:20:40;;;;;;;4.40;2.20;;;2.30;99.90;;;;;;5000228;28;20546;-80
2023/03/11 00:23:08;;;;;;;5.53;2.90;;;2.30;99.90;;;;;;5000947;28;20445;-80
2023/03/11 00:25:37;;;;;;;4.00;2.83;;;2.20;99.90;;;;;;5000568;28;20456;-80
2023/03/11 00:28:06;;;;;;;3.73;2.70;;;2.20;99.90;;;;;;5000609;28;20455;-80
2023/03/11 00:30:34;;;;;;;3.80;2.73;;;2.10;99.90;;;;;;5000838;28;20465;-79
2023/03/11 00:33:01;;;;;;;7.07;3.67;;;2.10;99.90;;;;;;5001424;28;20424;-80
2023/03/11 00:35:30;;;;;;;4.97;4.00;;;2.10;99.90;;;;;;5000975;28;20552;-80
2023/03/11 00:37:59;;;;;;;3.70;3.30;;;2.20;99.90;;;;;;4999606;28;20455;-78
2023/03/11 00:40:28;;;;;;;4.78;3.60;;;2.20;99.90;;;;;;4999876;28;20546;-79
2023/03/11 00:42:55;;;;;;;5.13;3.37;;;2.20;99.90;;;;;;5000637;28;20269;-79
2023/03/11 00:45:22;;;;;;;4.10;3.27;;;2.20;99.90;;;;;;5000766;28;20469;-79
2023/03/11 00:47:50;;;;;;;4.22;3.53;;;2.30;99.90;;;;;;5000489;28;20474;-79
2023/03/11 00:50:20;;;;;;;7.10;3.43;;;2.30;99.90;;;;;;4999603;28;20203;-79
2023/03/11 00:52:48;;;;;;;5.73;3.43;;;2.30;99.90;;;;;;5000211;28;20465;-79
2023/03/11 00:55:17;;;;;;;4.37;3.37;;;2.40;99.90;;;;;;4999678;28;20455;-79
2023/03/11 00:57:44;;;;;;;3.37;2.47;;;2.40;99.90;;;;;;4999120;28;20474;-79
2023/03/11 01:00:14;;;;;;;3.17;2.03;;;2.40;99.90;;;;;;5000307;28;20483;-79
2023/03/11 01:02:41;;;;;;;4.10;3.00;;;2.40;99.90;;;;;;4999756;28;20435;-80
2023/03/11 01:05:10;;;;;;;2.67;2.20;;;2.40;99.90;;;;;;5000015;28;20952;-80
2023/03/11 01:07:37;;;;;;;3.20;2.03;;;2.40;99.90;;;;;;5002364;28;20461;-80
2023/03/11 01:10:05;;;;;;;3.87;2.40;;;2.40;99.90;;;;;;5001404;28;20428;-80
2023/03/11 01:12:32;;;;;;;3.10;2.05;;;2.40;99.90;;;;;;5001996;28;20433;-79
2023/03/11 01:14:59;;;;;;;2.37;1.83;;;2.40;99.90;;;;;;5002087;28;20668;-80
2023/03/11 01:17:25;;;;;;;4.83;1.60;;;2.40;99.90;;;;;;5002754;28;20477;-80
2023/03/11 01:19:52;;;;;;;2.30;1.80;;;2.40;99.90;;;;;;5003530;28;20530;-80
2023/03/11 01:22:20;;;;;;;8.40;2.20;;;2.40;99.90;;;;;;5003654;28;20463;-80
2023/03/11 01:24:47;;;;;;;3.50;1.93;;;2.30;99.90;;;;;;5004190;28;20521;-80
2023/03/11 01:27:14;;;;;;;2.47;1.67;;;2.30;99.90;;;;;;5005563;28;20573;-80
2023/03/11 01:29:41;;;;;;;5.00;1.48;;;2.30;99.90;;;;;;5005285;28;20481;-80
2023/03/11 01:32:08;;;;;;;3.20;1.80;;;2.20;99.90;;;;;;5004976;28;20647;-80
2023/03/11 01:34:35;;;;;;;2.10;1.50;;;2.30;99.90;;;;;;5005482;28;20514;-79
2023/03/11 01:37:02;;;;;;;2.77;1.90;;;2.20;99.90;;;;;;5005412;28;20490;-80
2023/03/11 01:39:30;;;;;;;5.50;2.00;;;2.30;99.90;;;;;;5004478;28;20429;-80
2023/03/11 01:41:57;;;;;;;3.13;1.43;;;2.30;99.90;;;;;;5004349;28;20427;-80
2023/03/11 01:44:23;;;;;;;6.90;1.73;;;2.40;99.90;;;;;;5004693;28;20946;-80
2023/03/11 01:47:33;;;;;;;4.20;2.40;;;2.40;99.90;;;;;;5004773;28;20474;-80
2023/03/11 01:50:00;;;;;;;2.87;1.67;;;2.30;99.90;;;;;;4993903;28;20885;-80
2023/03/11 01:52:28;;;;;;;2.57;1.70;;;2.40;99.90;;;;;;5003478;28;20512;-80
2023/03/11 01:54:56;;;;;;;4.93;2.23;;;2.40;99.90;;;;;;5000146;28;20458;-79
2023/03/11 01:57:23;;;;;;;6.47;1.90;;;2.40;99.90;;;;;;4979249;28;20986;-79
2023/03/11 01:59:55;;;;;;;5.00;1.97;;;2.40;99.90;;;;;;4986098;28;20524;-78
2023/03/11 02:02:26;;;;;;;3.70;1.90;;;2.40;99.90;;;;;;4998808;28;20538;-77
2023/03/11 02:04:54;;;;;;;3.25;1.95;;;2.30;99.90;;;;;;4998269;28;20464;-78
2023/03/11 02:07:21;;;;;;;5.73;1.80;;;2.20;99.90;;;;;;4998814;28;20251;-78
2023/03/11 02:09:48;;;;;;;4.67;2.50;;;2.10;99.90;;;;;;4997831;28;20542;-79
2023/03/11 02:12:16;;;;;;;3.17;1.77;;;2.10;99.90;;;;;;4997494;28;20482;-79
2023/03/11 02:14:46;;;;;;;4.37;3.00;;;2.10;99.90;;;;;;4997763;28;20454;-79
2023/03/11 02:17:12;;;;;;;2.50;1.83;;;2.10;99.90;;;;;;4997379;28;20473;-79
2023/03/11 02:19:51;;;;;;;3.20;1.60;;;2.20;99.90;;;;;;4997154;28;20451;-79
2023/03/11 02:22:18;;;;;;;5.03;1.97;;;2.20;99.90;;;;;;4996597;28;20433;-79
2023/03/11 02:24:56;;;;;;;4.13;2.40;;;2.10;99.90;;;;;;4996961;28;20450;-79
2023/03/11 02:27:26;;;;;;;4.33;2.40;;;2.20;99.90;;;;;;4996504;28;20241;-79
2023/03/11 02:29:55;;;;;;;6.40;1.90;;;2.20;99.90;;;;;;4997517;28;20466;-79
2023/03/11 02:32:22;;;;;;;5.07;2.43;;;2.10;99.90;;;;;;4997948;28;20456;-79
2023/03/11 02:34:49;;;;;;;4.00;2.30;;;2.00;99.90;;;;;;4997918;28;20454;-79
2023/03/11 02:37:17;;;;;;;4.77;2.00;;;1.90;99.90;;;;;;5000244;28;20469;-79
2023/03/11 02:39:46;;;;;;;7.00;2.23;;;1.70;99.90;;;;;;4999458;28;20477;-79
2023/03/11 02:42:17;;;;;;;3.00;1.63;;;1.70;99.90;;;;;;4997032;28;20450;-79
2023/03/11 02:44:49;;;;;;;4.72;3.38;;;1.60;99.90;;;;;;4996897;28;20467;-79
2023/03/11 02:47:17;;;;;;;7.75;2.67;;;1.50;99.90;;;;;;4996847;28;20223;-79
2023/03/11 02:49:44;;;;;;;4.15;2.50;;;1.50;99.90;;;;;;4996506;28;20210;-79
2023/03/11 02:52:11;;;;;;;8.53;2.50;;;1.40;99.90;;;;;;4996718;28;20220;-79
2023/03/11 02:54:38;;;;;;;4.30;3.03;;;1.40;99.90;;;;;;4997235;28;20849;-79
2023/03/11 02:57:05;;;;;;;3.17;2.05;;;1.30;99.90;;;;;;4997228;28;20474;-79
2023/03/11 02:59:32;;;;;;;3.77;1.63;;;1.30;99.90;;;;;;4996582;28;20213;-79
2023/03/11 03:02:00;;;;;;;5.00;2.10;;;1.30;99.90;;;;;;4996532;28;20440;-78
2023/03/11 03:04:27;;;;;;;5.18;1.50;;;1.30;99.90;;;;;;4998737;28;20211;-78
2023/03/11 03:06:54;;;;;;;5.70;2.22;;;1.20;99.90;;;;;;4998526;28;20326;-78
2023/03/11 03:09:20;;;;;;;5.10;2.45;;;1.20;99.90;;;;;;4997355;28;20244;-78
2023/03/11 03:11:47;;;;;;;4.90;2.20;;;1.10;99.90;;;;;;4995852;28;20300;-79
2023/03/11 03:14:14;;;;;;;6.72;2.88;;;1.10;99.90;;;;;;4997044;28;20497;-79
2023/03/11 03:16:41;;;;;;;5.43;2.20;;;1.10;99.90;;;;;;4998023;28;20318;-79
2023/03/11 03:19:09;;;;;;;4.35;2.70;;;1.10;99.90;;;;;;4996678;28;20209;-79
2023/03/11 03:21:36;;;;;;;4.10;1.98;;;1.10;99.90;;;;;;4997303;28;20291;-79
2023/03/11 03:24:03;;;;;;;3.10;2.45;;;1.10;99.90;;;;;;4997021;28;20207;-79
2023/03/11 03:26:29;;;;;;;9.90;2.63;;;1.20;99.90;;;;;;4997332;28;20203;-79
2023/03/11 03:28:56;;;;;;;4.40;2.50;;;1.20;99.90;;;;;;4996529;28;20476;-78
2023/03/11 03:31:23;;;;;;;12.18;2.70;;;1.30;99.90;;;;;;4996171;28;20215;-79
2023/03/11 03:33:50;;;;;;;7.10;2.43;;;1.40;99.90;;;;;;4996401;28;20199;-79
2023/03/11 03:36:18;;;;;;;3.95;2.35;;;1.50;99.90;;;;;;4996662;28;20494;-79
2023/03/11 03:38:45;;;;;;;6.78;2.33;;;1.50;99.90;;;;;;4999578;28;20309;-78
2023/03/11 03:41:14;;;;;;;9.33;2.20;;;1.60;99.90;;;;;;4999859;28;20203;-79
2023/03/11 03:43:40;;;;;;;4.20;1.63;;;1.60;99.90;;;;;;5000204;28;20422;-79
2023/03/11 03:46:07;;;;;;;8.05;2.05;;;1.70;99.90;;;;;;5000170;28;20214;-80
2023/03/11 03:48:35;;;;;;;3.97;2.03;;;1.80;99.90;;;;;;5001030;28;20226;-79
2023/03/11 03:51:06;;;;;;;9.63;3.07;;;1.70;99.90;;;;;;5000611;28;20585;-79
2023/03/11 03:53:36;;;;;;;7.30;2.97;;;1.70;99.90;;;;;;5000524;28;20465;-77
2023/03/11 03:56:03;;;;;;;6.50;2.33;;;1.70;99.90;;;;;;5000294;28;20438;-82
2023/03/11 03:58:30;;;;;;;4.60;2.43;;;1.70;99.90;;;;;;5001345;28;20445;-80
2023/03/11 04:00:58;;;;;;;5.10;2.10;;;1.70;99.90;;;;;;5001518;28;20466;-79
2023/03/11 04:03:25;;;;;;;7.70;2.13;;;1.80;99.90;;;;;;5002394;28;20458;-80
2023/03/11 04:05:51;;;;;;;4.50;2.40;;;1.70;99.90;;;;;;5000453;28;20428;-79
2023/03/11 04:08:18;;;;;;;4.30;2.17;;;1.80;99.90;;;;;;4999499;28;20227;-78
2023/03/11 04:10:56;;;;;;;2.57;1.60;;;1.80;99.90;;;;;;5000511;28;20540;-79
2023/03/11 04:13:23;;;;;;;7.23;1.77;;;1.90;99.90;;;;;;4988241;28;20533;-78
2023/03/11 04:15:50;;;;;;;10.40;2.35;;;2.00;99.90;;;;;;4999316;28;20450;-80
2023/03/11 04:18:17;;;;;;;10.73;2.57;;;2.00;99.90;;;;;;4998610;28;20711;-79
2023/03/11 04:20:44;;;;;;;4.60;2.20;;;1.90;99.90;;;;;;4999825;28;20989;-79
2023/03/11 04:23:11;;;;;;;5.37;2.03;;;1.90;99.90;;;;;;5000087;28;20463;-79
2023/03/11 04:25:38;;;;;;;3.67;1.87;;;2.00;99.90;;;;;;5000657;28;20458;-79
2023/03/11 04:28:06;;;;;;;4.90;2.10;;;2.00;99.90;;;;;;4999399;28;20937;-79
2023/03/11 04:30:33;;;;;;;9.30;2.30;;;2.00;99.90;;;;;;5025425;23;20498;-79
2023/03/11 04:33:00;;;;;;;4.83;2.47;;;2.00;99.90;;;;;;5013835;28;20517;-80
2023/03/11 04:35:30;;;;;;;3.70;1.97;;;2.00;99.90;;;;;;5000413;28;20421;-80
2023/03/11 04:37:56;;;;;;;4.43;2.03;;;2.10;99.90;;;;;;4998799;28;20498;-79
2023/03/11 04:40:23;;;;;;;5.50;1.55;;;2.00;99.90;;;;;;5000561;28;20230;-80
2023/03/11 04:42:50;;;;;;;3.20;1.83;;;2.00;99.90;;;;;;5016857;28;20597;-80
2023/03/11 04:45:18;;;;;;;3.47;1.60;;;2.00;99.90;;;;;;5016488;28;20464;-80
2023/03/11 04:47:48;;;;;;;6.40;2.50;;;2.00;99.90;;;;;;5017945;28;20432;-80
2023/03/11 04:50:15;;;;;;;7.40;2.20;;;1.90;99.90;;;;;;5015844;28;20803;-80
2023/03/11 04:52:41;;;;;;;5.83;2.27;;;2.00;99.90;;;;;;5016506;28;20466;-80
2023/03/11 04:55:09;;;;;;;2.63;1.30;;;2.00;99.90;;;;;;5017136;28;20904;-79
2023/03/11 04:57:36;;;;;;;5.20;1.83;;;2.10;99.90;;;;;;4998830;28;20476;-80
2023/03/11 05:00:07;;;;;;;4.57;2.50;;;2.10;99.90;;;;;;4997818;28;20476;-80
2023/03/11 05:02:35;;;;;;;4.63;1.88;;;2.10;98.10;;;;;;5014138;28;20462;-80
2023/03/11 05:05:02;;;;;;;4.90;2.50;;;2.10;98.60;;;;;;5017694;28;20213;-80
2023/03/11 05:07:29;;;;;;;4.73;1.60;;;2.10;95.70;;;;;;5017148;28;20867;-80
2023/03/11 05:09:56;;;;;;;6.13;2.70;;;2.00;94.40;;;;;;5017293;28;20592;-80
2023/03/11 05:12:23;;;;;;;3.28;1.95;;;2.00;99.90;;;;;;5001865;28;20464;-79
2023/03/11 05:14:49;;;;;;;4.37;1.60;;;2.10;99.90;;;;;;4997950;28;20668;-80
2023/03/11 05:17:18;;;;;;;4.80;3.33;;;2.10;99.90;;;;;;5011072;28;20495;-79
2023/03/11 05:19:47;;;;;;;6.47;2.10;;;2.10;99.90;;;;;;5017337;28;20452;-79
2023/03/11 05:22:14;;;;;;;7.40;2.50;;;2.10;99.90;;;;;;5016236;28;20975;-80
2023/03/11 05:24:41;;;;;;;3.07;1.87;;;2.10;94.90;;;;;;5017152;28;20442;-80
2023/03/11 05:27:08;;;;;;;2.77;1.27;;;2.10;98.30;;;;;;5009918;28;20457;-80
2023/03/11 05:29:35;;;;;;;6.03;1.97;;;2.00;92.50;;;;;;5017096;28;20485;-80
2023/03/11 05:32:01;;;;;;;3.78;1.70;;;1.90;75.40;;;;;;5015317;28;20442;-80
2023/03/11 05:34:28;;;;;;;2.80;1.50;;;1.90;99.90;;;;;;5014875;28;20297;-80
2023/03/11 05:36:56;;;;;;;6.43;1.60;;;1.80;98.00;;;;;;5016102;28;20305;-80
2023/03/11 05:39:23;;;;;;;5.53;1.37;;;1.80;97.60;;;;;;5018400;28;20532;-80
2023/03/11 05:41:50;;;;;;;2.57;1.43;;;1.80;99.90;;;;;;5014708;28;20429;-81
2023/03/11 05:44:17;;;;;;;5.10;1.57;;;1.80;99.90;;;;;;5017377;28;20453;-81
2023/03/11 05:46:43;;;;;;;4.10;1.50;;;1.70;99.90;;;;;;5016228;28;20454;-80
2023/03/11 05:49:10;;;;;;;3.30;1.73;;;1.70;99.90;;;;;;5016478;28;20439;-79
2023/03/11 05:51:37;;;;;;;7.60;2.00;;;1.70;99.90;;;;;;5005968;28;20462;-80
2023/03/11 05:54:10;;;;;;;4.60;1.40;;;1.70;99.90;;;;;;4997070;28;20454;-80
2023/03/11 05:56:37;;;;;;;7.13;1.80;;;1.70;99.90;;;;;;5007892;28;20472;-81
2023/03/11 05:59:04;;;;;;;5.40;2.23;;;1.70;99.90;;;;;;5017152;28;20487;-81
2023/03/11 06:01:30;;;;;;;2.63;1.27;;;1.70;99.90;;;;;;5016914;28;20515;-80
2023/03/11 06:03:57;;;;;;;8.20;3.23;;;1.70;99.90;;;;;;5022107;28;20461;-80
2023/03/11 06:06:24;;;;;;;7.47;2.03;;;1.80;99.90;;;;;;5008498;28;20839;-81
2023/03/11 06:08:51;;;;;;;7.20;1.73;;;1.80;99.90;;;;;;4996661;28;20210;-80
2023/03/11 06:11:19;;;;;;;16.97;2.33;;;1.90;99.90;;;;;;4997553;28;20453;-80
2023/03/11 06:13:46;;;;;;;3.93;1.40;;;1.90;99.90;;;;;;4997164;28;20516;-80
2023/03/11 06:16:13;;;;;;;10.13;2.17;;;2.00;99.90;;;;;;4997024;28;20485;-81
2023/03/11 06:18:39;;;;;;;4.00;1.30;;;1.90;99.90;;;;;;4997063;28;20242;-81
2023/03/11 06:21:07;;;;;;;3.97;1.87;;;1.90;99.90;;;;;;5001774;28;20477;-81
2023/03/11 06:23:34;;;;;;;1.90;0.97;;;2.00;99.90;;;;;;5015365;28;20436;-80
2023/03/11 06:26:03;;;;;;;10.33;2.43;;;1.90;99.90;;;;;;5010421;28;20452;-81
2023/03/11 06:28:32;;;;;;;3.20;1.63;;;1.80;99.90;;;;;;4997363;28;20447;-81
2023/03/11 06:31:07;;;;;;;3.43;1.80;;;1.80;99.90;;;;;;5015000;28;20487;-81
2023/03/11 06:33:34;;;;;;;3.33;2.10;;;1.80;99.90;;;;;;5006965;28;20426;-81
2023/03/11 06:36:02;;;;;;;8.53;3.30;;;1.80;99.90;;;;;;5018696;28;20511;-81
2023/03/11 06:38:29;;;;;;;11.93;2.43;;;1.70;99.90;;;;;;5019443;28;20457;-82
2023/03/11 06:40:59;;;;;;;7.43;2.10;;;1.60;93.90;;;;;;5018447;28;20515;-81
2023/03/11 06:43:26;;;;;;;7.07;2.43;;;1.60;98.40;;;;;;5017114;28;20495;-81
2023/03/11 06:45:54;;;;;;;3.40;1.70;;;1.70;99.90;;;;;;5014077;28;20975;-80
2023/03/11 06:48:21;;;;;;;4.83;2.00;;;1.70;99.90;;;;;;5016122;28;20434;-79
2023/03/11 06:50:54;;;;;;;7.83;2.67;;;1.80;99.90;;;;;;5011935;28;20436;-83
2023/03/11 06:53:21;;;;;;;4.03;1.80;;;1.80;99.90;;;;;;5019099;28;20454;-82
2023/03/11 06:55:58;;;;;;;4.77;1.87;;;1.90;99.90;;;;;;4999379;28;20428;-82
2023/03/11 06:58:25;;;;;;;8.60;2.10;;;1.90;99.90;;;;;;4999367;28;20490;-83
2023/03/11 07:00:54;;;;;;;5.43;2.30;;;2.10;99.90;;;;;;5004640;28;20470;-85
2023/03/11 07:03:20;;;;;;;8.83;2.20;;;2.10;83.50;;;;;;5014201;28;20462;-82
2023/03/11 07:05:51;;;;;;;6.70;1.80;;;2.20;41.60;;;;;;5005671;28;20462;-82
2023/03/11 07:08:18;;;;;;;6.97;3.60;;;2.20;22.80;;;;;;5005313;28;20545;-83
2023/03/11 07:10:45;;;;;;;5.97;2.03;;;2.10;23.00;;;;;;5019172;28;20552;-83
2023/03/11 07:13:12;;;;;;;7.53;2.40;;;2.00;25.60;;;;;;5011724;28;20509;-82
2023/03/11 07:15:39;;;;;;;4.90;1.97;;;1.90;14.50;;;;;;5011614;28;20456;-83
2023/03/11 07:18:07;;;;;;;6.33;2.37;;;1.90;18.60;;;;;;5017784;28;20462;-82
2023/03/11 07:20:34;;;;;;;6.77;2.00;;;1.90;12.50;;;;;;5018596;28;20459;-79
2023/03/11 07:23:00;;;;;;;4.87;2.10;;;1.90;20.30;;;;;;5013354;28;20510;-83
2023/03/11 07:25:27;;;;;;;4.47;1.90;;;2.00;19.00;;;;;;5012659;28;20450;-83
2023/03/11 07:27:54;;;;;;;3.27;1.60;;;2.00;13.90;;;;;;5019670;28;20460;-82
2023/03/11 07:30:21;;;;;;;7.53;1.90;;;2.00;3.40;;;;;;5018171;28;21067;-83
2023/03/11 07:32:49;;;;;;;7.50;2.93;;;2.00;1.00;;;;;;5006575;28;20485;-83
2023/03/11 07:35:17;;;;;;;73.87;27.13;;;2.00;1.00;;;;;;5023696;28;20473;-82
2023/03/11 07:37:44;;;;;;;33.83;11.73;;;2.10;1.00;;;;;;5032103;28;20502;-81
2023/03/11 07:40:12;;;;;;;5.40;2.73;;;2.10;1.00;;;;;;5032666;28;20472;-80
2023/03/11 07:42:39;;;;;;;5.40;1.93;;;2.20;1.00;;;;;;5033176;28;20424;-81
2023/03/11 07:45:07;;;;;;;5.27;2.17;;;2.20;1.00;;;;;;5014920;28;20455;-81
2023/03/11 07:47:33;;;;;;;6.63;1.67;;;2.30;1.00;;;;;;5029626;28;20454;-80
2023/03/11 07:50:00;;;;;;;4.93;2.17;;;2.30;1.00;;;;;;5020805;28;20538;-81
2023/03/11 07:52:32;;;;;;;3.13;1.93;;;2.40;1.00;;;;;;5032318;28;20481;-82
2023/03/11 07:54:59;;;;;;;9.63;1.80;;;2.40;1.00;;;;;;5023168;28;20474;-81
2023/03/11 07:57:26;;;;;;;5.33;1.60;;;2.40;1.00;;;;;;5031821;28;20447;-82
2023/03/11 07:59:53;;;;;;;4.00;2.07;;;2.50;1.00;;;;;;5016124;28;20511;-82
2023/03/11 08:02:20;;;;;;;5.97;2.47;;;2.60;1.00;;;;;;5013787;28;20481;-82
2023/03/11 08:04:46;;;;;;;6.73;2.10;;;2.70;1.00;;;;;;5026511;28;20496;-80
2023/03/11 08:07:13;;;;;;;5.20;1.83;;;2.70;1.00;;;;;;5032135;28;20465;-82
2023/03/11 08:09:41;;;;;;;9.70;2.87;;;2.70;1.00;;;;;;5029942;28;20481;-81
2023/03/11 08:12:09;;;;;;;9.20;2.40;;;2.70;1.00;;;;;;5031570;28;20473;-82
2023/03/11 08:14:37;;;;;;;4.97;1.47;;;2.80;1.00;;;;;;5027500;28;20463;-81
2023/03/11 08:17:04;;;;;;;6.30;2.00;;;3.10;1.00;;;;;;5014232;28;20445;-82
2023/03/11 08:19:31;;;;;;;7.63;2.33;;;3.30;1.00;;;;;;5026864;28;21024;-82
2023/03/11 08:22:00;;;;;;;5.83;1.70;;;3.60;99.90;;;;;;5015649;28;20513;-81
2023/03/11 08:24:27;;;;;;;4.83;1.43;;;3.80;99.90;;;;;;5022749;28;20510;-81
2023/03/11 08:26:55;;;;;;;2.63;1.30;;;4.00;1.00;;;;;;5022822;28;20534;-82
2023/03/11 08:29:22;;;;;;;4.00;1.47;;;3.90;1.00;;;;;;5011445;28;20485;-81
2023/03/11 08:31:49;;;;;;;3.20;1.27;;;4.00;1.00;;;;;;5008983;28;21062;-82
2023/03/11 08:34:16;;;;;;;4.10;1.37;;;4.10;99.90;;;;;;5014905;28;20515;-81
2023/03/11 08:36:43;;;;;;;3.50;1.57;;;4.10;99.90;;;;;;5025387;28;20453;-82
2023/03/11 08:39:10;;;;;;;3.63;1.80;;;4.20;99.90;;;;;;5021016;28;20513;-82
2023/03/11 08:41:37;;;;;;;6.73;1.57;;;4.40;1.00;;;;;;5008240;28;20541;-81
2023/03/11 08:44:05;;;;;;;4.13;1.67;;;4.50;7.50;;;;;;5013127;28;20554;-83
2023/03/11 08:46:35;;;;;;;4.10;2.00;;;4.60;99.90;;;;;;5023696;28;21087;-82
2023/03/11 08:49:03;;;;;;;3.73;1.30;;;4.60;99.90;;;;;;5019688;28;20509;-82
2023/03/11 08:51:32;;;;;;;4.47;1.90;;;4.60;1.00;;;;;;5017256;28;20935;-82
2023/03/11 08:54:00;;;;;;;6.13;1.53;;;4.80;1.00;;;;;;5018976;28;20484;-83
2023/03/11 08:56:26;;;;;;;5.40;1.30;;;5.10;1.00;;;;;;5020617;28;20541;-82
2023/03/11 08:58:53;;;;;;;3.50;1.00;;;5.80;99.90;;;;;;5021390;28;20570;-83
2023/03/11 09:01:22;;;;;;;6.10;1.87;;;6.40;99.90;;;;;;5012420;28;20970;-82
2023/03/11 09:03:49;;;;;;;3.70;1.10;;;6.90;22.30;;;;;;5021086;28;20461;-83
2023/03/11 09:06:17;;;;;;;5.87;1.50;;;6.90;99.90;;;;;;5020360;28;20459;-82
2023/03/11 09:08:45;;;;;;;5.80;1.50;;;7.00;1.00;;;;;;5009877;28;20456;-83
2023/03/11 09:11:12;;;;;;;3.97;1.10;;;6.90;1.00;;;;;;5010887;28;20490;-82
2023/03/11 09:13:39;;;;;;;6.93;1.33;;;7.40;1.00;;;;;;5020141;28;20478;-83
2023/03/11 09:16:07;;;;;;;3.23;1.23;;;8.70;1.00;;;;;;5005014;28;20458;-83
2023/03/11 09:18:36;;;;;;;3.70;1.33;;;9.00;1.00;;;;;;5002300;28;20577;-82
2023/03/11 09:21:02;;;;;;;1.87;0.80;;;9.20;1.00;;;;;;5017136;28;20506;-82
2023/03/11 09:23:29;;;;;;;2.40;1.20;;;10.00;1.00;;;;;;5016154;28;20459;-83
2023/03/11 09:25:56;;;;;;;3.40;1.10;;;9.90;1.00;;;;;;5009430;28;20461;-83
2023/03/11 09:28:23;;;;;;;4.70;1.47;;;9.50;1.00;;;;;;5022132;28;20475;-83
2023/03/11 09:30:51;;;;;;;2.73;0.90;;;8.50;1.00;;;;;;5021570;28;20497;-83
2023/03/11 09:33:18;;;;;;;4.27;0.90;;;7.90;1.00;;;;;;5020166;28;20596;-83
2023/03/11 09:35:46;;;;;;;2.10;1.00;;;7.80;1.00;;;;;;5016248;28;21759;-83
2023/03/11 09:38:13;;;;;;;4.27;1.17;;;7.40;1.00;;;;;;5000606;28;20565;-82
2023/03/11 09:40:54;;;;;;;2.40;1.00;;;8.00;1.00;;;;;;5011733;28;20560;-82
2023/03/11 09:43:34;;;;;;;3.30;0.97;;;10.20;1.00;;;;;;5019008;28;20451;-82
2023/03/11 09:46:26;;;;;;;2.00;0.80;;;11.00;1.00;;;;;;5015782;28;20520;-82
2023/03/11 09:48:58;;;;;;;2.77;0.80;;;10.40;1.00;;;;;;5019146;28;20988;-83
2023/03/11 09:51:30;;;;;;;2.93;1.10;;;10.60;1.00;;;;;;5019468;28;20520;-81
2023/03/11 09:54:02;;;;;;;5.30;1.10;;;9.90;1.00;;;;;;5018800;28;20539;-83
2023/03/11 09:56:30;;;;;;;2.93;0.70;;;9.80;1.00;;;;;;5019588;28;20980;-82
2023/03/11 09:59:01;;;;;;;2.20;0.80;;;11.20;1.00;;;;;;5020138;28;20490;-82
2023/03/11 10:01:33;;;;;;;3.20;1.00;;;12.90;1.00;;;;;;5020009;28;20456;-81
2023/03/11 10:04:08;;;;;;;3.80;1.13;;;13.80;1.00;;;;;;5020387;28;20463;-82
2023/03/11 10:06:37;;;;;;;5.17;1.00;;;15.10;1.00;;;;;;5019820;28;20507;-82
2023/03/11 10:09:19;;;;;;;2.33;0.90;;;14.50;1.00;;;;;;5018790;28;20546;-80
2023/03/11 10:11:59;;;;;;;5.17;1.10;;;17.30;1.00;;;;;;5017555;28;20847;-82
2023/03/11 10:14:42;;;;;;;4.07;0.90;;;16.40;1.00;;;;;;5022334;28;20525;-77
2023/03/11 10:17:17;;;;;;;6.60;1.07;;;14.10;1.00;;;;;;5025734;28;20453;-80
2023/03/11 10:19:49;;;;;;;5.20;2.07;;;15.70;1.00;;;;;;5019614;28;20535;-80
2023/03/11 10:22:27;;;;;;;3.70;0.90;;;17.60;1.00;;;;;;5019365;28;20456;-81
2023/03/11 10:25:04;;;;;;;3.50;0.90;;;18.40;1.00;;;;;;5019675;28;20449;-82
2023/03/11 10:27:37;;;;;;;3.07;0.90;;;18.10;1.00;;;;;;5015518;28;20457;-82
2023/03/11 10:30:13;;;;;;;2.60;1.20;;;19.90;1.00;;;;;;5022594;23;20488;-82
2023/03/11 10:32:44;;;;;;;4.87;0.97;;;20.00;1.00;;;;;;4997468;28;20487;-82
2023/03/11 10:35:18;;;;;;;4.60;1.40;;;20.50;1.00;;;;;;4996355;28;20968;-80
2023/03/11 10:37:51;;;;;;;3.03;0.93;;;18.60;1.00;;;;;;4986695;28;20530;-81
2023/03/11 10:40:28;;;;;;;2.40;0.90;;;19.10;1.00;;;;;;4977010;28;20496;-82
2023/03/11 10:42:57;;;;;;;2.93;0.90;;;18.10;1.00;;;;;;4964946;28;20463;-82
2023/03/11 10:45:25;;;;;;;3.33;0.93;;;18.20;1.00;;;;;;4975877;28;20898;-82
2023/03/11 10:47:52;;;;;;;5.50;1.33;;;18.10;1.00;;;;;;4976569;28;21044;-82
2023/03/11 10:50:20;;;;;;;4.23;1.10;;;15.00;99.90;;;;;;4961061;28;20549;-81
2023/03/11 10:53:06;;;;;;;7.87;1.60;;;14.60;99.90;;;;;;4960172;28;20486;-85
2023/03/11 10:55:34;;;;;;;4.47;1.00;;;16.20;99.90;;;;;;4977680;28;20525;-82
2023/03/11 10:58:12;;;;;;;2.83;1.00;;;17.00;99.90;;;;;;4977125;28;20467;-84
2023/03/11 11:00:39;;;;;;;3.40;1.17;;;18.40;1.00;;;;;;4975727;28;20462;-84
2023/03/11 11:03:16;;;;;;;3.57;0.93;;;19.80;1.00;;;;;;4972142;28;20459;-83
2023/03/11 11:05:43;;;;;;;7.60;4.67;;;21.20;1.00;;;;;;4964861;28;20548;-81
2023/03/11 11:08:15;;;;;;;6.40;3.13;;;22.10;1.00;;;;;;4972001;28;20451;-81
2023/03/11 11:10:51;;;;;;;4.40;1.53;;;22.70;1.00;;;;;;4975212;28;20495;-79
2023/03/11 11:13:20;;;;;;;4.50;1.27;;;22.50;1.00;;;;;;4965209;28;20458;-81
2023/03/11 11:15:58;;;;;;;2.93;1.10;;;21.10;1.00;;;;;;4957773;29;20826;-79
2023/03/11 11:18:28;;;;;;;2.60;1.00;;;18.40;99.90;;;;;;4963671;28;20441;-80
2023/03/11 11:20:59;;;;;;;2.73;1.10;;;18.20;99.90;;;;;;4975490;28;20470;-80
2023/03/11 11:23:32;;;;;;;3.90;1.10;;;18.60;99.90;;;;;;4974714;28;20483;-81
2023/03/11 11:26:03;;;;;;;3.90;1.17;;;19.60;99.90;;;;;;4975120;28;20540;-80
2023/03/11 11:28:31;;;;;;;2.97;0.80;;;19.40;99.90;;;;;;4974365;28;20968;-82
2023/03/11 11:31:00;;;;;;;2.03;0.83;;;19.10;99.90;;;;;;4974168;28;20490;-82
2023/03/11 11:33:29;;;;;;;5.43;1.37;;;18.80;99.90;;;;;;4974030;28;20461;-81
2023/03/11 11:35:58;;;;;;;2.73;0.97;;;17.20;99.90;;;;;;4974426;28;20461;-81
2023/03/11 11:38:28;;;;;;;2.27;0.80;;;16.00;99.90;;;;;;4973356;28;20467;-78
2023/03/11 11:40:58;;;;;;;3.85;1.25;;;14.10;99.90;;;;;;4972718;28;20456;-79
2023/03/11 11:43:46;;;;;;;3.37;1.20;;;13.40;99.90;;;;;;4974043;28;20202;-78
2023/03/11 11:46:20;;;;;;;3.63;1.00;;;12.10;99.90;;;;;;4974538;28;20492;-80
2023/03/11 11:48:54;;;;;;;3.00;1.00;;;11.60;99.90;;;;;;4974112;28;20541;-80
2023/03/11 11:51:25;;;;;;;3.30;0.87;;;11.40;99.90;;;;;;4974016;28;20558;-79
2023/03/11 11:53:59;;;;;;;5.80;1.00;;;11.80;99.90;;;;;;4974290;28;20458;-80
2023/03/11 11:56:26;;;;;;;3.40;1.30;;;13.30;99.90;;;;;;4975176;28;20454;-80
2023/03/11 11:58:54;;;;;;;3.80;1.17;;;15.30;99.90;;;;;;4976313;28;21090;-80
2023/03/11 12:01:33;;;;;;;4.13;1.30;;;16.00;99.90;;;;;;4978302;28;20475;-79
2023/03/11 12:04:29;;;;;;;4.00;1.10;;;16.30;99.90;;;;;;4978206;28;20459;-81
2023/03/11 12:07:21;;;;;;;4.23;1.27;;;15.90;99.90;;;;;;4978397;28;20470;-80
2023/03/11 12:09:56;;;;;;;7.50;1.50;;;16.30;99.90;;;;;;4971197;28;20489;-82
2023/03/11 12:12:30;;;;;;;2.83;1.37;;;16.20;99.90;;;;;;4979050;28;20451;-81
2023/03/11 12:15:06;;;;;;;3.63;1.20;;;16.40;99.90;;;;;;4985673;28;20537;-80
2023/03/11 12:17:36;;;;;;;2.83;1.10;;;18.70;99.90;;;;;;4983315;28;20462;-80
2023/03/11 12:20:10;;;;;;;3.73;1.37;;;21.60;99.90;;;;;;4981839;28;21029;-82
2023/03/11 12:23:12;;;;;;;4.53;1.30;;;23.90;1.00;;;;;;4981326;28;20988;-79
2023/03/11 12:25:47;;;;;;;3.00;1.10;;;24.20;1.00;;;;;;4963004;29;20550;-81
2023/03/11 12:28:21;;;;;;;5.77;1.40;;;26.20;1.00;;;;;;4962812;28;20455;-81
2023/03/11 12:30:51;;;;;;;3.03;1.20;;;25.10;1.00;;;;;;4966336;28;20807;-81
2023/03/11 12:33:26;;;;;;;3.63;1.33;;;25.50;1.00;;;;;;4984016;28;20456;-81
2023/03/11 12:35:57;;;;;;;4.63;1.63;;;26.00;1.00;;;;;;4968504;28;20447;-81
2023/03/11 12:38:31;;;;;;;2.50;1.47;;;26.40;1.00;;;;;;4959930;28;20457;-81
2023/03/11 12:41:08;;;;;;;2.80;1.43;;;26.90;1.00;;;;;;4958512;28;20495;-81
2023/03/11 12:44:02;;;;;;;3.00;1.63;;;26.30;1.00;;;;;;4958832;28;20456;-81
2023/03/11 12:47:03;;;;;;;3.73;1.70;;;24.10;1.00;;;;;;4961939;28;20456;-81
2023/03/11 12:49:31;;;;;;;2.47;1.30;;;23.50;99.90;;;;;;4966065;28;20446;-81
2023/03/11 12:52:16;;;;;;;3.00;1.50;;;22.10;99.90;;;;;;4959173;28;20494;-81
2023/03/11 12:54:46;;;;;;;4.33;1.60;;;21.50;99.90;;;;;;4968683;28;20808;-80
2023/03/11 12:57:31;;;;;;;3.50;1.60;;;20.40;99.90;;;;;;4980107;28;20976;-80
2023/03/11 13:00:17;;;;;;;4.73;1.80;;;18.80;99.90;;;;;;4977208;28;20497;-81
2023/03/11 13:03:16;;;;;;;3.23;1.30;;;19.00;99.90;;;;;;4977186;28;20462;-80
2023/03/11 13:05:56;;;;;;;2.83;1.03;;;20.80;99.90;;;;;;4975653;28;20458;-82
2023/03/11 13:08:25;;;;;;;4.60;1.50;;;20.90;99.90;;;;;;4979666;28;20457;-85
2023/03/11 13:10:53;;;;;;;2.87;1.23;;;18.70;99.90;;;;;;4979062;28;20490;-82